Time;durP1;ratioP1;P1;durP2;ratioP2;P2;SDS_P1;SDS_P2;PMS_P1;PMS_P2;Temp;Humidity;BMP_temperature;BMP_pressure;BME280_temperature;BME280_humidity;BME280_pressure;Samples;Min_cycle;Max_cycle;Signal;HPM_P1;HPM_P2
2023/05/30 00:00:50;;;;;;;8.47;1.90;;;12.30;99.90;;;;;;5119280;28;20188;-78
2023/05/30 00:03:15;;;;;;;8.97;2.13;;;12.20;1.00;;;;;;5120216;28;20165;-78
2023/05/30 00:05:41;;;;;;;9.07;2.33;;;12.20;1.00;;;;;;5119100;28;20770;-79
2023/05/30 00:08:07;;;;;;;4.63;1.73;;;12.10;99.90;;;;;;5120266;28;20623;-78
2023/05/30 00:10:32;;;;;;;5.53;1.77;;;12.10;71.80;;;;;;5118613;28;20173;-78
2023/05/30 00:12:59;;;;;;;7.10;2.10;;;12.00;99.90;;;;;;5119825;28;20177;-78
2023/05/30 00:15:25;;;;;;;11.43;2.13;;;12.00;99.90;;;;;;5119706;28;20185;-78
2023/05/30 00:17:52;;;;;;;7.13;2.03;;;11.90;99.90;;;;;;5119299;28;20174;-77
2023/05/30 00:20:19;;;;;;;10.70;1.90;;;11.90;99.90;;;;;;5119298;28;20162;-78
2023/05/30 00:22:45;;;;;;;11.70;1.97;;;11.80;99.90;;;;;;5119284;28;20219;-78
2023/05/30 00:25:11;;;;;;;8.47;2.20;;;11.80;99.90;;;;;;5117310;28;20795;-78
2023/05/30 00:27:37;;;;;;;5.37;1.97;;;11.80;99.90;;;;;;5119503;28;20210;-78
2023/05/30 00:30:02;;;;;;;11.80;2.03;;;11.70;99.90;;;;;;5118643;28;20173;-78
2023/05/30 00:32:28;;;;;;;4.83;2.10;;;11.70;99.90;;;;;;5119036;28;20177;-79
2023/05/30 00:34:54;;;;;;;6.13;1.83;;;11.70;99.90;;;;;;5118613;28;20266;-78
2023/05/30 00:37:19;;;;;;;8.40;1.90;;;11.60;99.90;;;;;;5118957;28;20642;-78
2023/05/30 00:39:45;;;;;;;8.57;2.07;;;11.60;99.90;;;;;;5118840;28;20293;-78
2023/05/30 00:42:11;;;;;;;7.40;1.93;;;11.60;99.90;;;;;;5117070;28;20237;-78
2023/05/30 00:44:36;;;;;;;7.53;1.87;;;11.60;99.90;;;;;;5118832;28;20216;-78
2023/05/30 00:47:02;;;;;;;8.27;1.93;;;11.60;99.90;;;;;;5116551;28;20650;-78
2023/05/30 00:49:28;;;;;;;3.37;2.17;;;11.50;99.90;;;;;;5116410;28;20181;-77
2023/05/30 00:51:54;;;;;;;9.43;2.27;;;11.40;99.90;;;;;;5117139;28;20170;-78
2023/05/30 00:54:21;;;;;;;7.37;2.40;;;11.40;99.90;;;;;;5116964;28;20219;-78
2023/05/30 00:56:47;;;;;;;11.10;2.60;;;11.40;99.90;;;;;;5114748;28;20193;-78
2023/05/30 00:59:13;;;;;;;9.40;2.00;;;11.30;99.90;;;;;;5115023;28;20170;-78
2023/05/30 01:01:42;;;;;;;10.83;2.03;;;11.30;99.90;;;;;;5116669;28;20747;-78
2023/05/30 01:04:08;;;;;;;5.33;2.10;;;11.30;99.90;;;;;;5116556;28;20704;-78
2023/05/30 01:06:37;;;;;;;9.33;2.30;;;11.20;1.00;;;;;;5117879;28;20186;-78
2023/05/30 01:09:04;;;;;;;15.07;2.30;;;11.20;1.00;;;;;;5115657;28;20173;-78
2023/05/30 01:11:56;;;;;;;13.77;1.90;;;11.20;1.00;;;;;;5117573;28;20173;-78
2023/05/30 01:14:45;;;;;;;11.50;2.30;;;11.20;1.00;;;;;;5114486;28;20277;-77
2023/05/30 01:17:46;;;;;;;12.97;2.10;;;11.20;1.00;;;;;;5116175;28;20157;-78
2023/05/30 01:20:14;;;;;;;8.60;2.10;;;11.10;99.90;;;;;;5101920;28;20189;-78
2023/05/30 01:22:53;;;;;;;9.40;1.90;;;11.10;1.00;;;;;;5116414;28;20188;-78
2023/05/30 01:25:28;;;;;;;7.67;2.70;;;11.00;1.00;;;;;;5114761;28;20281;-78
2023/05/30 01:28:12;;;;;;;6.23;2.07;;;11.00;92.60;;;;;;5114592;28;20191;-78
2023/05/30 01:30:40;;;;;;;7.97;1.93;;;10.90;99.90;;;;;;5114417;28;20162;-78
2023/05/30 01:33:09;;;;;;;10.63;2.30;;;10.90;99.90;;;;;;5115117;28;20173;-77
2023/05/30 01:35:35;;;;;;;9.67;2.60;;;10.90;1.00;;;;;;5114648;28;20224;-78
2023/05/30 01:38:01;;;;;;;8.43;2.03;;;10.90;1.00;;;;;;5115525;28;20170;-78
2023/05/30 01:40:28;;;;;;;7.20;2.07;;;10.80;1.00;;;;;;5115435;28;20208;-78
2023/05/30 01:43:25;;;;;;;11.47;2.13;;;10.70;1.00;;;;;;5113917;28;20195;-78
2023/05/30 01:46:13;;;;;;;11.17;2.90;;;10.80;99.90;;;;;;5115491;28;20204;-77
2023/05/30 01:49:00;;;;;;;7.67;2.60;;;10.70;99.90;;;;;;5115904;28;20193;-78
2023/05/30 01:51:36;;;;;;;7.57;2.10;;;10.70;1.00;;;;;;5115756;28;20160;-78
2023/05/30 01:54:04;;;;;;;6.60;1.93;;;10.60;1.00;;;;;;5115676;28;20191;-78
2023/05/30 01:56:31;;;;;;;12.10;2.00;;;10.60;1.00;;;;;;5113872;28;20194;-78
2023/05/30 01:58:57;;;;;;;8.30;2.33;;;10.60;23.20;;;;;;5115135;28;20719;-77
2023/05/30 02:01:27;;;;;;;12.40;2.43;;;10.50;99.90;;;;;;5114986;27;20207;-78
2023/05/30 02:03:54;;;;;;;7.67;2.10;;;10.50;99.90;;;;;;5115041;28;20150;-78
2023/05/30 02:06:19;;;;;;;9.70;1.97;;;10.40;99.90;;;;;;5115653;28;20197;-78
2023/05/30 02:08:45;;;;;;;12.50;2.47;;;10.40;1.00;;;;;;5113986;28;20256;-78
2023/05/30 02:11:11;;;;;;;12.27;2.53;;;10.40;1.00;;;;;;5112398;28;20260;-78
2023/05/30 02:13:36;;;;;;;10.03;2.27;;;10.40;1.00;;;;;;5105825;28;20193;-78
2023/05/30 02:16:02;;;;;;;10.70;2.20;;;10.30;99.90;;;;;;5095045;28;20323;-78
2023/05/30 02:18:27;;;;;;;12.57;2.20;;;10.20;1.00;;;;;;5093799;28;20181;-78
2023/05/30 02:20:54;;;;;;;18.80;2.87;;;10.20;1.00;;;;;;5094843;28;20174;-78
2023/05/30 02:23:20;;;;;;;13.93;2.33;;;10.20;99.90;;;;;;5105439;28;20194;-78
2023/05/30 02:25:46;;;;;;;12.00;2.53;;;10.20;1.00;;;;;;5112929;28;20216;-77
2023/05/30 02:28:11;;;;;;;16.47;2.63;;;10.30;1.00;;;;;;5114011;28;20181;-78
2023/05/30 02:30:37;;;;;;;10.37;2.13;;;10.30;1.00;;;;;;5113197;28;20692;-78
2023/05/30 02:33:03;;;;;;;9.93;2.37;;;10.30;1.00;;;;;;5108198;28;20265;-77
2023/05/30 02:35:29;;;;;;;9.43;2.20;;;10.30;99.90;;;;;;5091859;28;20206;-78
2023/05/30 02:37:54;;;;;;;9.90;2.20;;;10.30;95.60;;;;;;5109142;28;20663;-77
2023/05/30 02:40:20;;;;;;;14.37;3.10;;;10.30;99.90;;;;;;5093353;28;20181;-78
2023/05/30 02:42:45;;;;;;;7.93;2.13;;;10.30;99.90;;;;;;5099408;28;20614;-78
2023/05/30 02:45:11;;;;;;;12.53;2.80;;;10.30;99.90;;;;;;5113515;28;20213;-78
2023/05/30 02:47:36;;;;;;;9.57;1.93;;;10.30;99.90;;;;;;5111984;28;20169;-78
2023/05/30 02:50:02;;;;;;;13.33;2.20;;;10.30;1.00;;;;;;5113816;28;20173;-78
2023/05/30 02:52:28;;;;;;;12.67;2.47;;;10.30;32.20;;;;;;5108499;28;20193;-78
2023/05/30 02:54:54;;;;;;;14.57;2.60;;;10.20;99.90;;;;;;5093490;28;20190;-78
2023/05/30 02:57:21;;;;;;;10.10;2.53;;;10.20;1.00;;;;;;5093087;28;20174;-78
2023/05/30 02:59:47;;;;;;;11.80;2.93;;;10.20;99.90;;;;;;5092065;28;20256;-78
2023/05/30 03:02:12;;;;;;;11.53;2.40;;;10.20;1.00;;;;;;5093672;28;20174;-77
2023/05/30 03:04:38;;;;;;;10.27;2.60;;;10.20;1.00;;;;;;5093600;28;20255;-77
2023/05/30 03:07:08;;;;;;;16.33;2.83;;;10.20;99.90;;;;;;5093428;28;20212;-78
2023/05/30 03:09:34;;;;;;;11.30;2.70;;;10.20;1.00;;;;;;5093755;28;20163;-78
2023/05/30 03:12:00;;;;;;;11.87;2.77;;;10.20;99.90;;;;;;5091838;28;20175;-77
2023/05/30 03:14:26;;;;;;;8.40;2.23;;;10.20;99.90;;;;;;5093568;28;20542;-78
2023/05/30 03:16:51;;;;;;;17.33;3.27;;;10.20;1.00;;;;;;5091964;28;20194;-77
2023/05/30 03:19:17;;;;;;;15.53;2.80;;;10.10;1.00;;;;;;5092612;28;20181;-78
2023/05/30 03:21:43;;;;;;;8.43;2.20;;;10.10;99.90;;;;;;5093271;28;20237;-78
2023/05/30 03:24:08;;;;;;;11.03;2.73;;;10.10;99.90;;;;;;5096899;28;20256;-78
2023/05/30 03:26:34;;;;;;;14.27;3.00;;;10.20;99.90;;;;;;5097711;28;20186;-78
2023/05/30 03:29:01;;;;;;;13.60;2.80;;;10.20;99.90;;;;;;5097219;28;20235;-77
2023/05/30 03:31:29;;;;;;;9.90;2.37;;;10.20;99.90;;;;;;5095567;28;20576;-78
2023/05/30 03:33:54;;;;;;;13.57;3.07;;;10.20;99.90;;;;;;5096788;28;20226;-77
2023/05/30 03:36:20;;;;;;;10.87;2.80;;;10.20;99.90;;;;;;5096536;28;20655;-77
2023/05/30 03:38:46;;;;;;;12.97;2.80;;;10.20;1.00;;;;;;5095168;28;20170;-77
2023/05/30 03:41:12;;;;;;;14.23;3.57;;;10.10;1.00;;;;;;5095203;28;20666;-78
2023/05/30 03:43:37;;;;;;;11.07;2.60;;;10.10;65.10;;;;;;5096295;28;20177;-78
2023/05/30 03:46:03;;;;;;;14.40;2.67;;;10.10;99.90;;;;;;5095808;28;20202;-77
2023/05/30 03:48:29;;;;;;;14.60;3.00;;;10.00;99.90;;;;;;5094373;28;20348;-76
2023/05/30 03:50:55;;;;;;;13.93;2.83;;;10.10;99.90;;;;;;5096114;28;20231;-78
2023/05/30 03:53:20;;;;;;;14.20;2.90;;;10.10;99.90;;;;;;5094546;28;20178;-77
2023/05/30 03:55:47;;;;;;;13.30;3.30;;;10.10;99.90;;;;;;5096021;28;20198;-77
2023/05/30 03:58:12;;;;;;;11.00;2.73;;;10.10;99.90;;;;;;5094327;28;20206;-77
2023/05/30 04:00:38;;;;;;;12.50;2.90;;;10.10;99.90;;;;;;5095246;28;20181;-77
2023/05/30 04:03:03;;;;;;;16.07;3.37;;;10.10;99.90;;;;;;5095280;28;20177;-77
2023/05/30 04:05:29;;;;;;;11.23;3.20;;;10.10;99.90;;;;;;5094984;28;20698;-76
2023/05/30 04:07:54;;;;;;;14.97;2.70;;;10.10;99.90;;;;;;5095072;28;20579;-76
2023/05/30 04:10:20;;;;;;;18.50;3.80;;;10.10;99.90;;;;;;5095106;28;20265;-76
2023/05/30 04:12:46;;;;;;;11.90;3.07;;;10.10;99.90;;;;;;5093583;28;20228;-77
2023/05/30 04:15:11;;;;;;;13.70;3.40;;;10.10;99.90;;;;;;5094794;28;20578;-75
2023/05/30 04:17:37;;;;;;;11.77;3.33;;;10.10;29.30;;;;;;5094815;28;20467;-76
2023/05/30 04:20:08;;;;;;;14.20;3.43;;;10.10;99.90;;;;;;5094852;28;20223;-76
2023/05/30 04:22:34;;;;;;;12.93;3.40;;;10.10;21.20;;;;;;5094832;28;20186;-76
2023/05/30 04:25:00;;;;;;;12.37;3.67;;;10.20;1.00;;;;;;5094827;28;20209;-77
2023/05/30 04:27:25;;;;;;;12.60;3.70;;;10.20;1.00;;;;;;5093378;28;20185;-76
2023/05/30 04:29:51;;;;;;;18.53;3.63;;;10.20;1.00;;;;;;5093281;28;20174;-76
2023/05/30 04:32:17;;;;;;;13.43;4.10;;;10.20;1.00;;;;;;5094750;28;20170;-76
2023/05/30 04:34:43;;;;;;;16.47;3.47;;;10.20;1.00;;;;;;5093510;28;20664;-75
2023/05/30 04:37:10;;;;;;;14.13;3.60;;;10.30;99.90;;;;;;5094409;28;20170;-75
2023/05/30 04:39:36;;;;;;;13.30;3.60;;;10.30;1.00;;;;;;5094441;28;20221;-76
2023/05/30 04:42:04;;;;;;;8.07;2.97;;;10.30;99.90;;;;;;5092792;28;20267;-75
2023/05/30 04:44:32;;;;;;;9.10;2.80;;;10.30;99.90;;;;;;5092829;28;20289;-75
2023/05/30 04:46:58;;;;;;;12.63;4.43;;;10.30;50.50;;;;;;5093887;28;20173;-76
2023/05/30 04:49:23;;;;;;;15.87;3.83;;;10.30;99.90;;;;;;5092404;28;20174;-76
2023/05/30 04:51:50;;;;;;;12.07;3.50;;;10.30;99.90;;;;;;5092439;28;20220;-76
2023/05/30 04:54:15;;;;;;;10.43;3.63;;;10.30;99.90;;;;;;5093619;28;20196;-76
2023/05/30 04:56:41;;;;;;;15.80;3.73;;;10.30;99.90;;;;;;5092225;28;20193;-76
2023/05/30 04:59:07;;;;;;;13.07;2.80;;;10.40;99.90;;;;;;5091760;28;20170;-76
2023/05/30 05:01:35;;;;;;;13.07;3.47;;;10.40;99.90;;;;;;5091641;28;20177;-76
2023/05/30 05:04:01;;;;;;;18.43;3.40;;;10.40;6.30;;;;;;5093397;28;20178;-74
2023/05/30 05:06:27;;;;;;;11.50;3.03;;;10.40;1.00;;;;;;5093397;28;20720;-76
2023/05/30 05:08:53;;;;;;;12.47;2.97;;;10.40;13.50;;;;;;5091965;28;20204;-76
2023/05/30 05:11:18;;;;;;;12.80;3.30;;;10.40;1.00;;;;;;5091989;28;20262;-76
2023/05/30 05:13:44;;;;;;;10.27;3.30;;;10.40;1.00;;;;;;5093398;28;20178;-76
2023/05/30 05:16:10;;;;;;;10.27;3.30;;;10.40;99.90;;;;;;5093234;28;20190;-76
2023/05/30 05:18:35;;;;;;;18.70;3.60;;;10.40;99.90;;;;;;5091904;28;20204;-76
2023/05/30 05:21:01;;;;;;;11.40;3.83;;;10.40;99.90;;;;;;5093064;28;20631;-76
2023/05/30 05:23:28;;;;;;;18.43;3.70;;;10.40;99.90;;;;;;5091847;28;20262;-76
2023/05/30 05:25:53;;;;;;;14.13;3.33;;;10.50;99.90;;;;;;5093239;28;20247;-76
2023/05/30 05:28:19;;;;;;;17.43;3.30;;;10.50;99.90;;;;;;5093140;28;20201;-76
2023/05/30 05:30:48;;;;;;;14.13;3.03;;;10.50;99.90;;;;;;5093193;28;20159;-77
2023/05/30 05:33:15;;;;;;;15.50;4.70;;;10.50;99.90;;;;;;5091965;28;20690;-76
2023/05/30 05:35:40;;;;;;;11.10;3.47;;;10.60;1.00;;;;;;5093110;28;20186;-76
2023/05/30 05:38:06;;;;;;;10.87;3.67;;;10.60;99.90;;;;;;5098899;28;20285;-77
2023/05/30 05:40:32;;;;;;;9.60;3.20;;;10.60;1.00;;;;;;5107007;28;20665;-76
2023/05/30 05:42:57;;;;;;;12.87;3.10;;;10.60;1.00;;;;;;5109781;28;20598;-76
2023/05/30 05:45:23;;;;;;;14.97;3.83;;;10.70;99.90;;;;;;5092345;28;20202;-75
2023/05/30 05:47:48;;;;;;;10.10;3.17;;;10.60;99.90;;;;;;5091557;28;20198;-76
2023/05/30 05:50:14;;;;;;;10.23;2.90;;;10.70;99.90;;;;;;5092759;28;20248;-75
2023/05/30 05:52:40;;;;;;;8.40;3.50;;;10.80;99.90;;;;;;5092795;28;20170;-76
2023/05/30 05:55:06;;;;;;;16.13;4.00;;;10.80;99.90;;;;;;5092620;28;20190;-77
2023/05/30 05:57:31;;;;;;;11.07;3.93;;;10.80;96.50;;;;;;5092665;28;20182;-76
2023/05/30 05:59:57;;;;;;;11.07;3.23;;;10.80;1.00;;;;;;5092584;28;20201;-76
2023/05/30 06:02:22;;;;;;;10.73;3.60;;;10.90;1.00;;;;;;5092653;28;20174;-77
2023/05/30 06:04:49;;;;;;;9.70;3.53;;;11.00;99.90;;;;;;5092480;28;20205;-77
2023/05/30 06:07:15;;;;;;;11.03;3.53;;;11.00;1.00;;;;;;5091289;28;20503;-77
2023/05/30 06:09:40;;;;;;;13.67;3.60;;;11.00;1.00;;;;;;5092668;28;20163;-76
2023/05/30 06:12:07;;;;;;;14.27;3.50;;;11.10;1.00;;;;;;5093276;28;20170;-77
2023/05/30 06:14:32;;;;;;;11.97;3.30;;;11.10;99.90;;;;;;5092138;28;20174;-78
2023/05/30 06:16:58;;;;;;;9.63;3.30;;;11.10;99.90;;;;;;5093517;28;20196;-76
2023/05/30 06:19:24;;;;;;;14.80;3.53;;;11.20;99.90;;;;;;5093539;28;20220;-76
2023/05/30 06:21:49;;;;;;;13.10;3.77;;;11.20;1.00;;;;;;5094010;28;20194;-77
2023/05/30 06:24:15;;;;;;;11.63;3.67;;;11.40;99.90;;;;;;5093540;28;20250;-77
2023/05/30 06:26:40;;;;;;;17.83;4.13;;;11.40;1.00;;;;;;5092695;28;20194;-76
2023/05/30 06:29:06;;;;;;;12.83;3.70;;;11.40;99.90;;;;;;5093277;28;20257;-77
2023/05/30 06:31:31;;;;;;;9.83;3.13;;;11.50;1.00;;;;;;5093373;28;20202;-77
2023/05/30 06:33:57;;;;;;;20.63;3.50;;;11.50;1.00;;;;;;5093296;28;20217;-76
2023/05/30 06:36:22;;;;;;;16.03;3.63;;;11.60;99.90;;;;;;5092804;28;20194;-77
2023/05/30 06:38:48;;;;;;;14.27;3.70;;;11.60;1.00;;;;;;5092699;28;20174;-77
2023/05/30 06:41:13;;;;;;;8.53;2.83;;;11.70;99.90;;;;;;5092634;28;20280;-77
2023/05/30 06:43:39;;;;;;;9.57;3.77;;;11.70;1.00;;;;;;5092920;28;20182;-77
2023/05/30 06:46:06;;;;;;;10.63;4.47;;;11.70;1.00;;;;;;5090907;28;20218;-77
2023/05/30 06:48:31;;;;;;;12.73;4.07;;;11.80;99.90;;;;;;5092993;28;20265;-77
2023/05/30 06:50:57;;;;;;;11.43;3.70;;;11.80;1.00;;;;;;5091049;28;20268;-75
2023/05/30 06:53:22;;;;;;;13.43;4.17;;;11.80;1.00;;;;;;5092317;28;20166;-76
2023/05/30 06:55:48;;;;;;;13.53;4.23;;;11.90;1.00;;;;;;5092677;28;20240;-77
2023/05/30 06:58:13;;;;;;;8.40;3.13;;;11.90;1.00;;;;;;5096100;28;20228;-76
2023/05/30 07:00:39;;;;;;;6.03;3.00;;;12.00;21.10;;;;;;5097796;28;20182;-76
2023/05/30 07:03:05;;;;;;;18.40;3.87;;;12.10;1.00;;;;;;5096509;28;20175;-77
2023/05/30 07:05:30;;;;;;;9.63;3.57;;;12.10;1.00;;;;;;5096248;28;20222;-77
2023/05/30 07:07:56;;;;;;;11.13;3.70;;;12.00;99.90;;;;;;5096749;28;20166;-76
2023/05/30 07:10:21;;;;;;;9.37;3.07;;;12.20;99.90;;;;;;5096851;28;20166;-77
2023/05/30 07:12:47;;;;;;;11.37;3.57;;;12.20;1.00;;;;;;5096229;28;20637;-77
2023/05/30 07:15:13;;;;;;;13.20;3.67;;;12.20;1.00;;;;;;5096377;28;20194;-77
2023/05/30 07:17:38;;;;;;;7.20;2.93;;;12.30;1.00;;;;;;5096714;28;20198;-78
2023/05/30 07:20:08;;;;;;;11.83;3.60;;;12.30;1.00;;;;;;5096618;28;20181;-77
2023/05/30 07:22:33;;;;;;;16.00;4.23;;;12.20;99.90;;;;;;5096728;28;20186;-77
2023/05/30 07:24:59;;;;;;;12.37;3.90;;;12.40;99.90;;;;;;5094583;28;20216;-77
2023/05/30 07:27:25;;;;;;;12.30;3.70;;;12.40;99.90;;;;;;5096005;28;20669;-76
2023/05/30 07:29:50;;;;;;;10.70;3.70;;;12.50;99.90;;;;;;5095110;28;20663;-76
2023/05/30 07:32:16;;;;;;;12.87;4.00;;;12.60;1.00;;;;;;5094600;28;20162;-76
2023/05/30 07:34:42;;;;;;;7.00;3.37;;;12.60;1.00;;;;;;5095616;28;20182;-77
2023/05/30 07:37:08;;;;;;;13.57;4.07;;;12.60;24.60;;;;;;5095356;28;20170;-77
2023/05/30 07:39:34;;;;;;;17.13;4.27;;;12.70;99.90;;;;;;5096221;28;20641;-77
2023/05/30 07:42:00;;;;;;;10.90;3.80;;;12.80;99.90;;;;;;5094816;28;20178;-76
2023/05/30 07:44:26;;;;;;;10.33;3.17;;;12.80;1.00;;;;;;5095823;28;20242;-77
2023/05/30 07:46:51;;;;;;;12.33;3.83;;;12.80;1.00;;;;;;5096032;28;20190;-77
2023/05/30 07:49:19;;;;;;;10.20;3.37;;;12.90;1.00;;;;;;5094505;28;20174;-77
2023/05/30 07:51:44;;;;;;;8.43;3.23;;;12.90;1.00;;;;;;5096137;28;20166;-77
2023/05/30 07:54:10;;;;;;;8.77;3.60;;;13.00;64.60;;;;;;5096533;28;20185;-76
2023/05/30 07:56:35;;;;;;;8.37;3.53;;;13.10;99.90;;;;;;5096339;28;20278;-77
2023/05/30 07:59:01;;;;;;;10.07;4.00;;;13.20;1.00;;;;;;5094546;28;20178;-77
2023/05/30 08:01:27;;;;;;;11.57;3.80;;;13.20;1.00;;;;;;5096184;28;20170;-78
2023/05/30 08:03:53;;;;;;;13.67;3.60;;;13.30;99.90;;;;;;5095947;28;20699;-75
2023/05/30 08:06:19;;;;;;;7.27;3.23;;;13.30;93.20;;;;;;5094062;28;20216;-77
2023/05/30 08:08:45;;;;;;;16.93;4.13;;;13.20;1.00;;;;;;5095843;28;20166;-78
2023/05/30 08:11:11;;;;;;;11.73;3.70;;;13.30;99.90;;;;;;5098925;28;20210;-78
2023/05/30 08:13:37;;;;;;;16.10;4.13;;;13.40;99.90;;;;;;5115050;28;20169;-76
2023/05/30 08:16:02;;;;;;;11.10;3.67;;;13.40;1.00;;;;;;5113751;28;20771;-76
2023/05/30 08:18:30;;;;;;;20.43;4.30;;;13.40;53.10;;;;;;5094206;28;20590;-77
2023/05/30 08:20:56;;;;;;;13.40;4.20;;;13.50;99.90;;;;;;5095557;28;20207;-76
2023/05/30 08:23:22;;;;;;;9.37;4.00;;;13.70;99.90;;;;;;5095271;28;20197;-78
2023/05/30 08:25:48;;;;;;;10.57;3.73;;;13.70;47.20;;;;;;5094007;28;20202;-77
2023/05/30 08:28:15;;;;;;;9.70;4.23;;;13.80;96.40;;;;;;5098197;28;20189;-77
2023/05/30 08:30:48;;;;;;;13.80;4.00;;;13.80;51.50;;;;;;5115541;28;20252;-78
2023/05/30 08:33:14;;;;;;;9.00;4.00;;;13.90;99.90;;;;;;5095437;28;20150;-76
2023/05/30 08:35:40;;;;;;;23.40;4.73;;;14.00;70.80;;;;;;5094790;28;20644;-77
2023/05/30 08:38:06;;;;;;;14.87;4.30;;;14.00;1.00;;;;;;5110576;28;20268;-77
2023/05/30 08:40:33;;;;;;;12.33;3.70;;;14.00;1.00;;;;;;5110675;28;20217;-76
2023/05/30 08:42:59;;;;;;;13.37;4.13;;;14.10;1.00;;;;;;5113548;28;20184;-77
2023/05/30 08:45:25;;;;;;;13.60;4.17;;;14.20;1.00;;;;;;5117241;28;20578;-77
2023/05/30 08:47:56;;;;;;;12.27;4.03;;;14.20;1.00;;;;;;5115624;28;20622;-77
2023/05/30 08:50:24;;;;;;;11.23;3.90;;;14.20;1.00;;;;;;5115911;28;20150;-77
2023/05/30 08:52:52;;;;;;;8.53;3.70;;;14.40;1.00;;;;;;5114561;28;20543;-76
2023/05/30 08:55:25;;;;;;;13.53;4.37;;;14.50;1.00;;;;;;5115310;28;20239;-78
2023/05/30 08:58:20;;;;;;;13.90;4.13;;;14.50;99.90;;;;;;5115499;28;20531;-77
2023/05/30 09:00:48;;;;;;;10.23;3.77;;;14.60;99.90;;;;;;5114868;28;20173;-77
2023/05/30 09:03:15;;;;;;;10.43;3.50;;;14.70;1.00;;;;;;5114903;28;20277;-77
2023/05/30 09:05:42;;;;;;;10.57;4.10;;;14.80;1.00;;;;;;5116601;28;20208;-78
2023/05/30 09:08:09;;;;;;;9.50;3.47;;;14.80;99.90;;;;;;5115112;28;20188;-78
2023/05/30 09:10:42;;;;;;;11.97;4.07;;;14.90;1.00;;;;;;5116414;27;20252;-78
2023/05/30 09:13:09;;;;;;;10.80;3.83;;;15.00;99.90;;;;;;5114726;28;20197;-78
2023/05/30 09:15:34;;;;;;;14.20;4.00;;;15.00;99.90;;;;;;5115687;28;20221;-78
2023/05/30 09:18:00;;;;;;;12.80;3.80;;;14.90;99.90;;;;;;5115780;28;20178;-77
2023/05/30 09:20:28;;;;;;;11.00;4.40;;;15.00;99.90;;;;;;5114830;28;20268;-78
2023/05/30 09:22:54;;;;;;;11.03;3.97;;;15.10;99.90;;;;;;5115954;28;20652;-77
2023/05/30 09:25:19;;;;;;;11.47;3.70;;;15.20;53.70;;;;;;5116580;28;20236;-78
2023/05/30 09:27:50;;;;;;;10.43;3.57;;;15.20;99.90;;;;;;5114866;28;20196;-78
2023/05/30 09:30:16;;;;;;;10.70;3.67;;;15.30;99.90;;;;;;5115489;28;20169;-78
2023/05/30 09:32:43;;;;;;;11.40;3.47;;;15.40;76.20;;;;;;5116257;28;20169;-78
2023/05/30 09:35:12;;;;;;;14.27;4.10;;;15.40;21.80;;;;;;5116284;28;20212;-78
2023/05/30 09:37:43;;;;;;;6.40;3.50;;;15.30;99.90;;;;;;5115891;28;20272;-78
2023/05/30 09:40:15;;;;;;;11.13;4.03;;;15.50;99.90;;;;;;5115909;28;20181;-78
2023/05/30 09:42:48;;;;;;;14.57;5.17;;;15.50;29.30;;;;;;5116439;28;20257;-78
2023/05/30 09:45:18;;;;;;;9.53;3.03;;;15.60;1.00;;;;;;5115990;28;20243;-78
2023/05/30 09:47:48;;;;;;;10.70;3.50;;;15.60;73.30;;;;;;5116553;28;20169;-77
2023/05/30 09:50:16;;;;;;;8.47;4.47;;;15.70;62.30;;;;;;5117887;28;20256;-78
2023/05/30 09:52:42;;;;;;;9.13;3.80;;;15.70;7.30;;;;;;5115282;28;20197;-78
2023/05/30 09:55:13;;;;;;;7.50;3.60;;;15.80;95.70;;;;;;5115971;28;20246;-78
2023/05/30 09:57:40;;;;;;;7.30;3.63;;;15.90;1.00;;;;;;5116910;28;20193;-77
2023/05/30 10:00:11;;;;;;;10.27;3.80;;;16.00;1.00;;;;;;5114928;28;20502;-78
2023/05/30 10:02:42;;;;;;;8.83;3.70;;;16.10;1.00;;;;;;5117247;28;20165;-78
2023/05/30 10:05:18;;;;;;;11.47;3.60;;;16.10;1.00;;;;;;5116070;28;20209;-78
2023/05/30 10:07:46;;;;;;;9.37;3.90;;;16.10;1.00;;;;;;5116490;28;20230;-79
2023/05/30 10:10:14;;;;;;;11.57;4.17;;;16.20;1.00;;;;;;5123354;28;20571;-78
2023/05/30 10:12:42;;;;;;;11.23;4.13;;;16.20;1.00;;;;;;5123545;28;20181;-78
2023/05/30 10:15:09;;;;;;;9.43;3.50;;;16.20;1.00;;;;;;5118890;28;20617;-78
2023/05/30 10:17:38;;;;;;;13.37;3.60;;;16.20;1.00;;;;;;5118133;28;20188;-79
2023/05/30 10:20:06;;;;;;;9.27;3.40;;;16.40;1.00;;;;;;5115925;28;20212;-77
2023/05/30 10:22:40;;;;;;;6.77;3.50;;;16.40;1.00;;;;;;5115448;28;20217;-79
2023/05/30 10:25:08;;;;;;;6.87;3.20;;;16.50;1.00;;;;;;5114117;28;20224;-78
2023/05/30 10:27:39;;;;;;;7.70;2.80;;;16.60;1.00;;;;;;5115711;28;20207;-78
2023/05/30 10:30:07;;;;;;;10.00;4.40;;;16.60;1.00;;;;;;5115666;28;20167;-78
2023/05/30 10:32:36;;;;;;;9.63;3.50;;;16.80;1.00;;;;;;5115212;28;20180;-78
2023/05/30 10:35:17;;;;;;;8.77;3.40;;;16.80;1.00;;;;;;5116222;28;20280;-78
2023/05/30 10:37:44;;;;;;;13.37;4.37;;;16.70;1.00;;;;;;5115792;28;20157;-79
2023/05/30 10:40:19;;;;;;;13.67;3.50;;;16.90;1.00;;;;;;5116137;28;20346;-79
2023/05/30 10:43:06;;;;;;;9.20;3.40;;;16.90;1.00;;;;;;5115838;28;20230;-78
2023/05/30 10:45:48;;;;;;;6.63;3.17;;;17.00;1.00;;;;;;5114004;28;20635;-79
2023/05/30 10:48:23;;;;;;;11.10;3.93;;;17.10;1.00;;;;;;5116285;28;20573;-78
2023/05/30 10:50:52;;;;;;;7.63;3.47;;;17.20;1.00;;;;;;5114599;28;20208;-78
2023/05/30 10:53:19;;;;;;;8.63;3.43;;;17.20;1.00;;;;;;5115948;28;20169;-79
2023/05/30 10:55:46;;;;;;;8.43;3.03;;;17.40;1.00;;;;;;5114252;28;20284;-79
2023/05/30 10:58:38;;;;;;;6.23;3.30;;;17.50;1.00;;;;;;5116150;28;20184;-79
2023/05/30 11:01:40;;;;;;;13.13;3.57;;;17.50;1.00;;;;;;5117341;28;20177;-78
2023/05/30 11:04:13;;;;;;;12.53;3.53;;;17.60;1.00;;;;;;5115355;28;20192;-78
2023/05/30 11:06:45;;;;;;;9.57;3.27;;;17.50;1.00;;;;;;5114105;28;20212;-78
2023/05/30 11:09:15;;;;;;;11.07;3.27;;;17.40;1.00;;;;;;5113845;28;20218;-78
2023/05/30 11:12:01;;;;;;;6.43;3.20;;;17.50;1.00;;;;;;5114648;28;20185;-79
2023/05/30 11:14:32;;;;;;;9.17;3.30;;;17.50;1.00;;;;;;5114353;28;20185;-79
2023/05/30 11:17:04;;;;;;;6.20;3.10;;;17.50;1.00;;;;;;5114796;28;20189;-78
2023/05/30 11:19:44;;;;;;;7.50;3.17;;;17.60;1.00;;;;;;5114835;28;20243;-79
2023/05/30 11:22:17;;;;;;;7.63;3.13;;;17.70;1.00;;;;;;5115654;28;20194;-78
2023/05/30 11:24:44;;;;;;;8.60;2.83;;;17.90;1.00;;;;;;5116820;28;20201;-78
2023/05/30 11:27:13;;;;;;;6.20;2.60;;;18.00;1.00;;;;;;5116079;28;20516;-79
2023/05/30 11:29:47;;;;;;;7.17;2.90;;;18.10;1.00;;;;;;5115877;28;20174;-79
2023/05/30 11:32:17;;;;;;;7.33;3.07;;;18.30;1.00;;;;;;5114891;28;20199;-79
2023/05/30 11:34:42;;;;;;;7.60;3.50;;;18.30;1.00;;;;;;5115155;28;20244;-79
2023/05/30 11:37:08;;;;;;;8.87;3.03;;;18.30;1.00;;;;;;5114270;28;20285;-78
2023/05/30 11:39:36;;;;;;;14.13;3.13;;;18.40;1.00;;;;;;5116569;28;20177;-80
2023/05/30 11:42:05;;;;;;;6.27;3.47;;;18.50;1.00;;;;;;5114217;28;20177;-78
2023/05/30 11:44:31;;;;;;;5.43;3.00;;;18.50;1.00;;;;;;5118907;28;20208;-79
2023/05/30 11:47:02;;;;;;;7.57;3.30;;;18.60;1.00;;;;;;5120463;28;20169;-79
2023/05/30 11:49:28;;;;;;;6.03;3.13;;;18.70;1.00;;;;;;5119548;28;20206;-79
2023/05/30 11:51:54;;;;;;;8.57;3.60;;;18.80;1.00;;;;;;5120453;28;20207;-79
2023/05/30 11:54:20;;;;;;;11.17;3.13;;;18.60;1.00;;;;;;5120196;28;20635;-78
2023/05/30 11:56:47;;;;;;;8.27;3.37;;;18.60;1.00;;;;;;5119957;28;20192;-80
2023/05/30 11:59:20;;;;;;;7.87;3.90;;;18.70;1.00;;;;;;5118796;28;20174;-79
2023/05/30 12:01:52;;;;;;;8.07;3.60;;;18.70;1.00;;;;;;5120501;28;20177;-79
2023/05/30 12:04:22;;;;;;;5.93;3.47;;;18.70;1.00;;;;;;5119999;28;20173;-79
2023/05/30 12:06:48;;;;;;;11.40;3.07;;;18.80;1.00;;;;;;5120241;28;20189;-78
2023/05/30 12:09:14;;;;;;;11.30;3.70;;;18.80;1.00;;;;;;5120099;28;20176;-79
2023/05/30 12:11:55;;;;;;;11.00;2.97;;;19.00;1.00;;;;;;5120689;28;20174;-79
2023/05/30 12:14:26;;;;;;;14.80;3.80;;;19.10;1.00;;;;;;5119827;28;20247;-79
2023/05/30 12:16:56;;;;;;;7.83;4.03;;;19.20;1.00;;;;;;5119008;28;20220;-79
2023/05/30 12:19:29;;;;;;;9.43;3.80;;;19.20;1.00;;;;;;5118117;28;20227;-79
2023/05/30 12:21:55;;;;;;;8.00;3.77;;;19.10;1.00;;;;;;5117970;28;20272;-78
2023/05/30 12:24:25;;;;;;;8.17;3.40;;;19.20;1.00;;;;;;5119578;28;20170;-79
2023/05/30 12:26:56;;;;;;;8.10;3.70;;;19.20;1.00;;;;;;5119769;28;20196;-79
2023/05/30 12:29:25;;;;;;;8.77;3.77;;;19.30;1.00;;;;;;5118676;28;20230;-79
2023/05/30 12:31:52;;;;;;;7.43;3.50;;;19.40;1.00;;;;;;5118108;28;20612;-78
2023/05/30 12:34:18;;;;;;;8.80;3.60;;;19.40;1.00;;;;;;5118279;28;20188;-79
2023/05/30 12:36:46;;;;;;;6.47;3.47;;;19.40;1.00;;;;;;5117810;28;20193;-79
2023/05/30 12:39:12;;;;;;;8.63;3.13;;;19.50;1.00;;;;;;5119466;28;20537;-78
2023/05/30 12:41:40;;;;;;;6.93;3.27;;;19.70;1.00;;;;;;5119207;28;20166;-79
2023/05/30 12:44:16;;;;;;;11.73;4.10;;;19.80;1.00;;;;;;5120338;28;20215;-78
2023/05/30 12:46:42;;;;;;;5.63;3.70;;;19.90;1.00;;;;;;5120198;28;20662;-79
2023/05/30 12:49:09;;;;;;;8.30;3.30;;;20.00;1.00;;;;;;5117973;28;20223;-79